createdAt,value
2023-07-14T00:04:45.449Z,100738.09
2023-07-14T00:14:48.536Z,100737.28
2023-07-14T00:24:51.066Z,100738.72
2023-07-14T00:34:54.172Z,100726.22
2023-07-14T00:44:56.984Z,100719.97
2023-07-14T00:54:59.716Z,100714.81
2023-07-14T01:05:05.331Z,100704.41
2023-07-14T01:15:09.101Z,100689.69
2023-07-14T01:25:27.694Z,100701.50
2023-07-14T01:35:34.061Z,100699.38
2023-07-14T01:45:45.385Z,100687.81
2023-07-14T01:55:49.181Z,100690.00
2023-07-14T02:05:51.630Z,100693.97
2023-07-14T02:15:54.746Z,100698.72
2023-07-14T02:26:33.709Z,100694.22
2023-07-14T02:36:54.693Z,100701.03
2023-07-14T02:47:05.052Z,100694.59
2023-07-14T02:57:07.816Z,100695.41
2023-07-14T03:07:10.379Z,100693.50
2023-07-14T03:17:13.328Z,100669.25
2023-07-14T03:27:16.120Z,100671.72
2023-07-14T03:37:18.767Z,100663.44
2023-07-14T03:47:21.629Z,100650.78
2023-07-14T03:57:24.314Z,100655.69
2023-07-14T04:07:26.782Z,100660.47
2023-07-14T04:17:30.787Z,100657.06
2023-07-14T04:27:34.619Z,100657.88
2023-07-14T04:37:37.142Z,100642.63
2023-07-14T04:47:39.751Z,100645.56
2023-07-14T04:57:42.456Z,100631.84
2023-07-14T05:07:44.923Z,100637.44
2023-07-14T05:17:47.594Z,100639.66
2023-07-14T05:27:50.482Z,100632.75
2023-07-14T05:37:54.909Z,100629.94
2023-07-14T05:47:57.657Z,100624.28
2023-07-14T05:58:00.160Z,100630.38
2023-07-14T06:08:02.861Z,100628.75
2023-07-14T06:18:05.451Z,100626.06
2023-07-14T06:28:08.459Z,100621.06
2023-07-14T06:38:11.625Z,100618.66
2023-07-14T06:48:14.109Z,100613.47
2023-07-14T06:58:16.507Z,100608.72
2023-07-14T07:08:19.338Z,100602.63
2023-07-14T07:18:27.154Z,100594.97
2023-07-14T07:28:29.887Z,100589.81
2023-07-14T07:38:32.292Z,100586.72
2023-07-14T07:48:37.131Z,100576.59
2023-07-14T07:58:40.335Z,100564.84
2023-07-14T08:08:43.417Z,100550.00
2023-07-14T08:18:45.895Z,100546.47
2023-07-14T08:28:48.469Z,100542.03
2023-07-14T08:38:51.317Z,100530.78
2023-07-14T08:49:05.351Z,100517.44
2023-07-14T08:59:15.147Z,100509.19
2023-07-14T09:09:25.861Z,100518.88
2023-07-14T09:19:52.939Z,100496.69
2023-07-14T09:29:56.157Z,100498.69
2023-07-14T09:40:24.551Z,100482.28
2023-07-14T09:50:27.530Z,100472.22
2023-07-14T10:00:40.506Z,100469.72
2023-07-14T10:10:45.275Z,100462.25
2023-07-14T10:21:07.369Z,100449.25
2023-07-14T10:31:42.064Z,100428.38
2023-07-14T10:41:48.449Z,100410.16
2023-07-14T10:51:55.515Z,100400.84
2023-07-14T11:02:01.434Z,100391.06
2023-07-14T11:12:26.895Z,100371.13
2023-07-14T11:22:34.426Z,100372.59
2023-07-14T11:32:49.131Z,100355.72
2023-07-14T11:42:56.047Z,100335.06
2023-07-14T11:53:00.277Z,100313.81
2023-07-14T12:03:11.367Z,100312.75
2023-07-14T12:13:34.864Z,100300.91
2023-07-14T12:23:37.830Z,100279.56
2023-07-14T12:33:40.727Z,100256.78
2023-07-14T12:43:45.169Z,100235.53
2023-07-14T12:54:14.203Z,100216.34
2023-07-14T13:04:18.186Z,100209.09
2023-07-14T13:14:27.891Z,100185.72
2023-07-14T13:24:33.373Z,100180.91
2023-07-14T13:34:40.133Z,100163.97
2023-07-14T13:44:50.017Z,100149.09
2023-07-14T13:54:59.403Z,100141.41
2023-07-14T14:05:02.080Z,100127.44
2023-07-14T14:15:04.948Z,100122.31
2023-07-14T14:25:20.886Z,100110.69
2023-07-14T14:35:35.912Z,100094.53
2023-07-14T14:45:38.376Z,100075.28
2023-07-14T14:55:41.033Z,100038.03
2023-07-14T15:05:46.036Z,100032.91
2023-07-14T15:15:51.592Z,100018.06
2023-07-14T15:25:55.514Z,100000.34
2023-07-14T15:35:58.609Z,99977.66
2023-07-14T15:46:02.994Z,99973.59
2023-07-14T15:56:06.245Z,99923.28
2023-07-14T16:06:18.134Z,99911.63
2023-07-14T16:16:21.349Z,99892.75
2023-07-14T16:26:25.769Z,99893.16
2023-07-14T16:36:30.852Z,99879.41
2023-07-14T16:46:58.270Z,99862.88
2023-07-14T16:57:01.129Z,99851.94
2023-07-14T17:07:04.357Z,99823.91
2023-07-14T17:17:07.121Z,99808.00
2023-07-14T17:27:19.074Z,99809.94
2023-07-14T17:37:25.158Z,99786.19
2023-07-14T17:47:27.869Z,99771.84
2023-07-14T17:57:31.718Z,99770.28
2023-07-14T18:07:34.266Z,99769.63
2023-07-14T18:17:36.779Z,99769.78
2023-07-14T18:27:39.538Z,99761.91
2023-07-14T18:37:42.389Z,99755.41
2023-07-14T18:47:45.018Z,99750.50
2023-07-14T18:57:51.418Z,99766.28
2023-07-14T19:07:54.596Z,99751.66
2023-07-14T19:17:57.280Z,99749.94
2023-07-14T19:28:00.191Z,99759.22
2023-07-14T19:38:05.717Z,99764.66
2023-07-14T19:48:23.092Z,99746.22
2023-07-14T19:58:27.258Z,99746.53
2023-07-14T20:08:30.183Z,99738.38
2023-07-14T20:18:33.966Z,99720.91
2023-07-14T20:28:37.843Z,99713.13
2023-07-14T20:38:41.569Z,99721.59
2023-07-14T20:48:44.038Z,99712.66
2023-07-14T20:58:48.628Z,99712.16
2023-07-14T21:08:52.444Z,99694.00
2023-07-14T21:18:55.222Z,99685.22
2023-07-14T21:28:59.922Z,99669.97
2023-07-14T21:39:02.585Z,99665.13
2023-07-14T21:49:13.157Z,99649.81
2023-07-14T21:59:20.621Z,99648.44
2023-07-14T22:09:23.304Z,99635.38
2023-07-14T22:19:26.106Z,99638.59
2023-07-14T22:29:28.728Z,99641.06
2023-07-14T22:39:31.622Z,99631.25
2023-07-14T22:49:34.241Z,99625.38
2023-07-14T22:59:36.640Z,99611.44
2023-07-14T23:09:39.134Z,99598.78
2023-07-14T23:19:41.631Z,99599.56
2023-07-14T23:29:44.076Z,99589.19
2023-07-14T23:39:47.216Z,99576.00
2023-07-14T23:49:49.644Z,99565.50
2023-07-14T23:59:52.121Z,99564.59
